Hagshult, Sweden

7:57 PM CET on December 10, 2016 (GMT +0100)
Värnamo | | Change Station

Elev 515 ft 57.20 °N, 14.04 °E | Updated 14 minutes ago

Overcast
Overcast
45.6 °F
Feels Like 43 °F
N
5.0
Wind Variable Wind from WSW
Gusts 16.0 mph

Today
High -- | Low -- °F
--% Chance of Precip.
Yesterday
High -- | Low -- °F
Precip. -- in
Pressure 29.71 in
Visibility 6.2 miles
Clouds Mostly Cloudy 1100 ft
Windchill 43 °F
Dew Point 44 °F
Humidity 92%
Rainfall 0.13 in
Snow Depth Not available.
8:32 AM 3:19 PM
Waxing Gibbous, 85% visible
METAR ESGJ 101850Z 27007KT 9999 BKN011 06/05 Q1006
Pressure 29.71 in
Visibility 6.2 miles
Clouds Mostly Cloudy 1100 ft
Windchill 43 °F
Dew Point 44 °F
Humidity 92%
Rainfall 0.13 in
Snow Depth Not available.
8:32 AM 3:19 PM
Waxing Gibbous, 85% visible
METAR ESGJ 101850Z 27007KT 9999 BKN011 06/05 Q1006

10-Day Weather Forecast

×

Almanac

Astronomy

Dec. 10, 2016 Rise Set
Actual Time
Civil Twilight
Nautical Twilight
Astronomical Twilight
Moon
Length of Visible Light
Length of Day
Tomorrow will be .
, % of the Moon is Illuminated

Today's Extremes

Country Highs Country Lows

Community

WunderPhotos

Upload Photos

1,956,620 photos uploaded!

WunderBlog® & News

Nearby

Air Quality

  Air Quality AQ Index Pollutant
Not available.

Snow Depth

Station Depth Elevation

Earthquake Activity

City Distance Mag. Time & Date
Minimum magnitude displayed is 2.5.

Coastal Water Temperatures

Place Temperature

Stations

Nearby Weather Stations

Station Location Temp. Windchill Dew Point Humidity Wind Precip. Elev Updated Type